Time;durP1;ratioP1;P1;durP2;ratioP2;P2;SDS_P1;SDS_P2;PMS_P1;PMS_P2;Temp;Humidity;BMP_temperature;BMP_pressure;BME280_temperature;BME280_humidity;BME280_pressure;Samples;Min_cycle;Max_cycle;Signal;HPM_P1;HPM_P2
2024/01/02 00:01:37;;;;;;;9.52;3.17;;;;;;;;;;5048007;28;20373;-76
2024/01/02 00:04:03;;;;;;;7.68;2.28;;;;;;;;;;5061430;28;20021;-76
2024/01/02 00:06:29;;;;;;;10.23;2.67;;;;;;;;;;5068052;28;20017;-76
2024/01/02 00:08:55;;;;;;;12.20;3.20;;;;;;;;;;5058705;28;20028;-76
2024/01/02 00:11:21;;;;;;;11.30;3.70;;;;;;;;;;5048581;28;20017;-76
2024/01/02 00:13:48;;;;;;;12.30;3.47;;;;;;;;;;5060475;28;20048;-76
2024/01/02 00:16:14;;;;;;;12.32;3.60;;;;;;;;;;5072291;28;20099;-76
2024/01/02 00:18:40;;;;;;;8.48;3.50;;;;;;;;;;5066507;28;20066;-76
2024/01/02 00:21:06;;;;;;;11.52;2.92;;;;;;;;;;5052536;28;20036;-76
2024/01/02 00:23:32;;;;;;;9.27;3.28;;;;;;;;;;5057278;28;20443;-76
2024/01/02 00:25:58;;;;;;;17.10;3.60;;;;;;;;;;5071976;28;20070;-76
2024/01/02 00:28:24;;;;;;;8.27;3.20;;;;;;;;;;5070530;28;20368;-76
2024/01/02 00:30:50;;;;;;;15.35;3.22;;;;;;;;;;5053408;28;20013;-76
2024/01/02 00:33:16;;;;;;;8.15;3.65;;;;;;;;;;5052472;28;20025;-76
2024/01/02 00:35:42;;;;;;;15.77;3.70;;;;;;;;;;5072693;28;20040;-76
2024/01/02 00:38:09;;;;;;;10.30;3.50;;;;;;;;;;5072391;28;20040;-76
2024/01/02 00:40:36;;;;;;;15.45;3.50;;;;;;;;;;5048353;28;20671;-76
2024/01/02 00:43:02;;;;;;;18.52;4.10;;;;;;;;;;5031994;28;20049;-76
2024/01/02 00:45:28;;;;;;;13.18;3.53;;;;;;;;;;5069638;28;20092;-76
2024/01/02 00:47:54;;;;;;;13.85;3.47;;;;;;;;;;5071146;28;20108;-76
2024/01/02 00:50:22;;;;;;;12.52;2.95;;;;;;;;;;5054404;28;20107;-76
2024/01/02 00:52:49;;;;;;;15.05;3.50;;;;;;;;;;5052673;28;20032;-76
2024/01/02 00:55:15;;;;;;;11.30;2.95;;;;;;;;;;5068122;28;20027;-76
2024/01/02 00:57:41;;;;;;;10.90;3.25;;;;;;;;;;5072421;28;20027;-76
2024/01/02 01:00:08;;;;;;;13.25;3.47;;;;;;;;;;5057233;28;20162;-76
2024/01/02 01:02:34;;;;;;;12.52;2.50;;;;;;;;;;5052701;28;20122;-76
2024/01/02 01:05:00;;;;;;;14.65;3.00;;;;;;;;;;5064489;28;20009;-75
2024/01/02 01:07:26;;;;;;;10.32;2.60;;;;;;;;;;5071130;28;20020;-76
2024/01/02 01:09:52;;;;;;;14.43;3.35;;;;;;;;;;5061381;28;20029;-76
2024/01/02 01:12:18;;;;;;;12.70;3.38;;;;;;;;;;5052325;28;20401;-76
2024/01/02 01:14:44;;;;;;;15.05;3.05;;;;;;;;;;5060046;28;20108;-76
2024/01/02 01:17:11;;;;;;;12.70;3.05;;;;;;;;;;5070843;28;20136;-76
2024/01/02 01:19:37;;;;;;;8.43;2.92;;;;;;;;;;5063262;28;20040;-76
2024/01/02 01:22:03;;;;;;;9.23;2.78;;;;;;;;;;5050523;28;20013;-76
2024/01/02 01:24:29;;;;;;;10.48;3.08;;;;;;;;;;5056380;28;20480;-76
2024/01/02 01:26:55;;;;;;;13.18;3.50;;;;;;;;;;5070389;28;20480;-76
2024/01/02 01:29:22;;;;;;;14.52;3.95;;;;;;;;;;5067366;28;20024;-76
2024/01/02 01:31:48;;;;;;;11.23;3.38;;;;;;;;;;5050700;28;20009;-76
2024/01/02 01:34:14;;;;;;;8.40;2.40;;;;;;;;;;5053079;28;20154;-76
2024/01/02 01:36:40;;;;;;;18.88;4.05;;;;;;;;;;5070531;28;20086;-76
2024/01/02 01:39:06;;;;;;;13.48;3.40;;;;;;;;;;5068316;28;20071;-76
2024/01/02 01:41:32;;;;;;;7.85;3.90;;;;;;;;;;5051832;28;20013;-76
2024/01/02 01:43:59;;;;;;;16.17;3.75;;;;;;;;;;5051636;28;20005;-76
2024/01/02 01:46:26;;;;;;;11.35;3.60;;;;;;;;;;5071520;28;20044;-76
2024/01/02 01:48:53;;;;;;;8.68;3.50;;;;;;;;;;5070348;28;20020;-76
2024/01/02 01:51:19;;;;;;;14.43;3.67;;;;;;;;;;5050173;28;20025;-76
2024/01/02 01:53:46;;;;;;;10.55;3.25;;;;;;;;;;5051702;28;20017;-76
2024/01/02 01:56:13;;;;;;;12.55;3.25;;;;;;;;;;5068992;28;20025;-76
2024/01/02 01:58:39;;;;;;;10.90;4.57;;;;;;;;;;5070105;28;20024;-76
2024/01/02 02:01:05;;;;;;;12.55;3.28;;;;;;;;;;5053569;28;20083;-76
2024/01/02 02:03:31;;;;;;;13.75;3.33;;;;;;;;;;5049849;28;20494;-76
2024/01/02 02:05:57;;;;;;;12.95;3.97;;;;;;;;;;5064966;28;20178;-76
2024/01/02 02:08:24;;;;;;;12.77;3.60;;;;;;;;;;5069537;28;20519;-76
2024/01/02 02:10:50;;;;;;;9.48;3.78;;;;;;;;;;5056384;28;20381;-76
2024/01/02 02:13:16;;;;;;;9.13;3.42;;;;;;;;;;5050812;28;20160;-76
2024/01/02 02:15:42;;;;;;;9.98;3.70;;;;;;;;;;5061285;28;20029;-76
2024/01/02 02:18:09;;;;;;;11.65;3.50;;;;;;;;;;5071297;28;20016;-76
2024/01/02 02:20:35;;;;;;;10.35;3.30;;;;;;;;;;5059588;28;20055;-76
2024/01/02 02:23:01;;;;;;;9.02;2.90;;;;;;;;;;5049082;28;20010;-76
2024/01/02 02:25:27;;;;;;;11.35;3.53;;;;;;;;;;5059212;28;20411;-76
2024/01/02 02:27:53;;;;;;;11.05;3.38;;;;;;;;;;5070698;28;20064;-76
2024/01/02 02:30:19;;;;;;;12.38;3.30;;;;;;;;;;5061929;28;20071;-76
2024/01/02 02:32:45;;;;;;;12.57;3.38;;;;;;;;;;5048865;28;20087;-76
2024/01/02 02:35:11;;;;;;;11.05;3.83;;;;;;;;;;5053760;28;20401;-77
2024/01/02 02:37:37;;;;;;;13.32;3.47;;;;;;;;;;5069040;28;20016;-76
2024/01/02 02:40:04;;;;;;;10.52;3.67;;;;;;;;;;5064547;28;20405;-76
2024/01/02 02:42:30;;;;;;;13.65;4.00;;;;;;;;;;5049008;28;20052;-76
2024/01/02 02:44:57;;;;;;;10.27;3.17;;;;;;;;;;5053374;28;20016;-76
2024/01/02 02:47:23;;;;;;;10.15;3.40;;;;;;;;;;5069231;28;20488;-76
2024/01/02 02:49:51;;;;;;;11.38;4.13;;;;;;;;;;5068571;28;20487;-76
2024/01/02 02:52:18;;;;;;;13.40;4.13;;;;;;;;;;5048941;28;20098;-76
2024/01/02 02:54:44;;;;;;;7.82;3.42;;;;;;;;;;5050644;28;20009;-76
2024/01/02 02:57:10;;;;;;;10.05;3.20;;;;;;;;;;5069087;28;20020;-76
2024/01/02 02:59:36;;;;;;;14.52;3.80;;;;;;;;;;5068866;28;20033;-76
2024/01/02 03:02:02;;;;;;;9.35;4.22;;;;;;;;;;5049161;28;20321;-76
2024/01/02 03:04:28;;;;;;;12.30;3.90;;;;;;;;;;5050673;28;20021;-76
2024/01/02 03:06:55;;;;;;;12.50;3.97;;;;;;;;;;5066455;28;20020;-76
2024/01/02 03:09:21;;;;;;;8.35;3.28;;;;;;;;;;5068735;28;20013;-76
2024/01/02 03:11:48;;;;;;;10.18;3.28;;;;;;;;;;5052785;28;20021;-76
2024/01/02 03:14:14;;;;;;;15.68;3.80;;;;;;;;;;5050192;28;20063;-76
2024/01/02 03:16:40;;;;;;;8.70;3.10;;;;;;;;;;5063065;28;20016;-76
2024/01/02 03:19:06;;;;;;;10.63;3.20;;;;;;;;;;5068731;28;20013;-76
2024/01/02 03:21:32;;;;;;;11.02;3.50;;;;;;;;;;5057184;28;20025;-76
2024/01/02 03:23:58;;;;;;;10.73;2.95;;;;;;;;;;5048750;28;20233;-76
2024/01/02 03:26:25;;;;;;;7.80;3.25;;;;;;;;;;5059124;28;20030;-76
2024/01/02 03:28:51;;;;;;;12.57;3.58;;;;;;;;;;5069683;28;20013;-76
2024/01/02 03:31:17;;;;;;;5.53;2.75;;;;;;;;;;5062919;28;20492;-76
2024/01/02 03:33:43;;;;;;;8.25;2.92;;;;;;;;;;5048577;28;20009;-76
2024/01/02 03:36:13;;;;;;;9.88;3.05;;;;;;;;;;5051462;28;20111;-76
2024/01/02 03:38:39;;;;;;;12.15;2.67;;;;;;;;;;5068247;28;20430;-76
2024/01/02 03:41:06;;;;;;;7.78;2.17;;;;;;;;;;5069841;28;20091;-77
2024/01/02 03:43:32;;;;;;;5.70;1.70;;;;;;;;;;5050460;28;20059;-76
2024/01/02 03:45:58;;;;;;;7.55;2.30;;;;;;;;;;5048483;28;20419;-76
2024/01/02 03:48:24;;;;;;;4.88;2.22;;;;;;;;;;5068651;28;20013;-76
2024/01/02 03:50:50;;;;;;;7.70;2.53;;;;;;;;;;5072438;28;20461;-76
2024/01/02 03:53:16;;;;;;;9.35;2.38;;;;;;;;;;5059365;28;20037;-76
2024/01/02 03:55:42;;;;;;;11.48;2.60;;;;;;;;;;5053973;28;20070;-76
2024/01/02 03:58:08;;;;;;;11.77;2.78;;;;;;;;;;5064575;28;20384;-76
2024/01/02 04:00:35;;;;;;;5.75;1.80;;;;;;;;;;5072431;28;20029;-76
2024/01/02 04:03:01;;;;;;;5.82;2.03;;;;;;;;;;5061273;28;20483;-76
2024/01/02 04:05:28;;;;;;;6.75;2.15;;;;;;;;;;5053265;28;20024;-77
2024/01/02 04:07:54;;;;;;;6.45;1.65;;;;;;;;;;5061696;28;20009;-76
2024/01/02 04:10:20;;;;;;;6.18;1.42;;;;;;;;;;5053832;28;20048;-76
2024/01/02 04:12:46;;;;;;;5.80;2.00;;;;;;;;;;5060758;28;20104;-76
2024/01/02 04:15:12;;;;;;;4.57;1.52;;;;;;;;;;5071757;28;20047;-76
2024/01/02 04:17:38;;;;;;;4.50;1.30;;;;;;;;;;5065291;28;20027;-76
2024/01/02 04:20:05;;;;;;;3.58;1.35;;;;;;;;;;5072684;28;20024;-76
2024/01/02 04:22:31;;;;;;;7.05;1.70;;;;;;;;;;5066749;28;20013;-76
2024/01/02 04:24:57;;;;;;;5.03;1.50;;;;;;;;;;5052155;28;20021;-76
2024/01/02 04:27:23;;;;;;;7.63;1.55;;;;;;;;;;5055517;28;20019;-76
2024/01/02 04:29:49;;;;;;;3.90;1.38;;;;;;;;;;5071859;28;20391;-76
2024/01/02 04:32:15;;;;;;;4.90;1.80;;;;;;;;;;5071250;28;20546;-76
2024/01/02 04:34:41;;;;;;;5.03;1.52;;;;;;;;;;5051370;28;20040;-76
2024/01/02 04:37:07;;;;;;;6.60;1.58;;;;;;;;;;5051376;28;20024;-76
2024/01/02 04:39:33;;;;;;;2.35;1.42;;;;;;;;;;5071084;28;20395;-76
2024/01/02 04:42:01;;;;;;;2.53;1.38;;;;;;;;;;5071917;28;20476;-77
2024/01/02 04:44:27;;;;;;;2.53;1.60;;;;;;;;;;5053614;28;20025;-76
2024/01/02 04:46:53;;;;;;;4.32;1.70;;;;;;;;;;5051632;28;20013;-77
2024/01/02 04:49:19;;;;;;;6.53;2.00;;;;;;;;;;5067993;28;20020;-76
2024/01/02 04:51:45;;;;;;;8.98;2.10;;;;;;;;;;5070656;28;20016;-77
2024/01/02 04:54:11;;;;;;;3.72;1.92;;;;;;;;;;5057376;28;20013;-77
2024/01/02 04:56:37;;;;;;;4.38;2.15;;;;;;;;;;5051173;28;20013;-76
2024/01/02 04:59:03;;;;;;;4.88;2.88;;;;;;;;;;5065431;28;20124;-77
2024/01/02 05:01:29;;;;;;;3.63;2.15;;;;;;;;;;5072616;28;20028;-77
2024/01/02 05:03:56;;;;;;;4.70;2.33;;;;;;;;;;5059349;28;20500;-76
2024/01/02 05:06:23;;;;;;;7.43;2.45;;;;;;;;;;5051864;28;20018;-76
2024/01/02 05:08:49;;;;;;;7.00;2.95;;;;;;;;;;5062807;28;20232;-77
2024/01/02 05:11:15;;;;;;;6.15;2.42;;;;;;;;;;5072555;28;20476;-77
2024/01/02 05:13:41;;;;;;;4.93;2.92;;;;;;;;;;5063546;28;20469;-78
2024/01/02 05:16:08;;;;;;;5.10;2.78;;;;;;;;;;5052365;28;20028;-78
2024/01/02 05:18:34;;;;;;;4.38;2.72;;;;;;;;;;5056909;28;20427;-77
2024/01/02 05:21:00;;;;;;;3.58;2.38;;;;;;;;;;5052070;28;20097;-76
2024/01/02 05:23:26;;;;;;;3.45;2.90;;;;;;;;;;5062019;28;20090;-77
2024/01/02 05:25:52;;;;;;;5.43;2.70;;;;;;;;;;5060269;28;20100;-77
2024/01/02 05:28:18;;;;;;;3.55;2.75;;;;;;;;;;5059924;28;20015;-77
2024/01/02 05:30:44;;;;;;;10.07;5.40;;;;;;;;;;5051510;28;20025;-77
2024/01/02 05:33:10;;;;;;;10.82;5.68;;;;;;;;;;5053071;28;20031;-77
2024/01/02 05:35:36;;;;;;;11.05;5.65;;;;;;;;;;5047336;28;20108;-77
2024/01/02 05:38:03;;;;;;;7.53;4.30;;;;;;;;;;5057391;28;20104;-77
2024/01/02 05:40:29;;;;;;;7.53;4.30;;;;;;;;;;5051463;28;20021;-77
2024/01/02 05:42:55;;;;;;;7.38;4.60;;;;;;;;;;5050832;28;20372;-77
2024/01/02 05:45:21;;;;;;;6.78;3.42;;;;;;;;;;5052159;28;20017;-78
2024/01/02 05:47:47;;;;;;;5.57;3.22;;;;;;;;;;5050838;28;20602;-77
2024/01/02 05:50:13;;;;;;;4.75;3.10;;;;;;;;;;5068862;28;20024;-77
2024/01/02 05:52:41;;;;;;;29.50;3.80;;;;;;;;;;5070406;28;20047;-77
2024/01/02 05:55:08;;;;;;;5.28;3.00;;;;;;;;;;5054112;28;20019;-77
2024/01/02 05:57:34;;;;;;;7.50;2.22;;;;;;;;;;5050326;28;20051;-77
2024/01/02 06:00:00;;;;;;;3.13;1.70;;;;;;;;;;5064403;28;20123;-77
2024/01/02 06:02:26;;;;;;;3.28;1.90;;;;;;;;;;5070192;28;20020;-77
2024/01/02 06:04:52;;;;;;;3.28;1.67;;;;;;;;;;5056679;28;20017;-77
2024/01/02 06:07:18;;;;;;;3.05;1.77;;;;;;;;;;5049969;28;20052;-77
2024/01/02 06:09:44;;;;;;;3.30;1.45;;;;;;;;;;5060079;28;20013;-79
2024/01/02 06:12:10;;;;;;;3.28;1.35;;;;;;;;;;5071314;28;20445;-77
2024/01/02 06:14:40;;;;;;;1.95;1.40;;;;;;;;;;5059570;28;20385;-77
2024/01/02 06:17:06;;;;;;;2.50;1.50;;;;;;;;;;5049941;28;20056;-77
2024/01/02 06:19:32;;;;;;;2.72;1.45;;;;;;;;;;5057653;28;20116;-76
2024/01/02 06:21:58;;;;;;;3.65;1.40;;;;;;;;;;5069340;28;20016;-78
2024/01/02 06:24:24;;;;;;;3.83;1.50;;;;;;;;;;5062003;28;20013;-78
2024/01/02 06:26:50;;;;;;;3.17;1.50;;;;;;;;;;5049217;28;20066;-78
2024/01/02 06:29:16;;;;;;;2.17;1.30;;;;;;;;;;5056134;28;20039;-78
2024/01/02 06:31:42;;;;;;;1.95;1.30;;;;;;;;;;5069478;28;20044;-77
2024/01/02 06:34:08;;;;;;;3.42;1.60;;;;;;;;;;5066893;28;20045;-78
2024/01/02 06:36:34;;;;;;;2.17;1.33;;;;;;;;;;5049154;28;20445;-78
2024/01/02 06:39:00;;;;;;;2.28;1.40;;;;;;;;;;5050287;28;20017;-76
2024/01/02 06:41:26;;;;;;;2.40;1.30;;;;;;;;;;5052000;28;20387;-80
2024/01/02 06:43:52;;;;;;;2.45;1.60;;;;;;;;;;5060013;28;20016;-77
2024/01/02 06:46:18;;;;;;;2.95;1.45;;;;;;;;;;5061473;28;20461;-76
2024/01/02 06:48:44;;;;;;;2.38;1.50;;;;;;;;;;5049272;28;20021;-76
2024/01/02 06:51:10;;;;;;;4.80;2.20;;;;;;;;;;5048137;28;20035;-76
2024/01/02 06:53:36;;;;;;;10.40;3.15;;;;;;;;;;5049570;28;20100;-77
2024/01/02 06:56:03;;;;;;;8.52;3.70;;;;;;;;;;5051994;28;20025;-76
2024/01/02 06:58:29;;;;;;;12.68;4.60;;;;;;;;;;5047963;28;20070;-77
2024/01/02 07:00:55;;;;;;;16.65;4.30;;;;;;;;;;5050813;28;20024;-76
2024/01/02 07:03:21;;;;;;;10.07;3.63;;;;;;;;;;5048616;28;20059;-76
2024/01/02 07:05:47;;;;;;;17.73;3.20;;;;;;;;;;5050003;28;20013;-76
2024/01/02 07:08:13;;;;;;;12.90;3.00;;;;;;;;;;5049680;28;20389;-76
2024/01/02 07:10:40;;;;;;;15.35;2.65;;;;;;;;;;5050654;28;20009;-76
2024/01/02 07:13:07;;;;;;;15.50;2.55;;;;;;;;;;5049853;28;20029;-77
2024/01/02 07:15:33;;;;;;;19.38;2.90;;;;;;;;;;5050767;28;20420;-77
2024/01/02 07:17:59;;;;;;;16.65;2.30;;;;;;;;;;5049757;28;20389;-77
2024/01/02 07:20:25;;;;;;;14.57;1.80;;;;;;;;;;5048571;28;20106;-78
2024/01/02 07:22:52;;;;;;;23.52;2.55;;;;;;;;;;5049333;28;20112;-77
2024/01/02 07:25:18;;;;;;;18.48;2.10;;;;;;;;;;5048286;28;20507;-78
2024/01/02 07:27:44;;;;;;;24.92;2.28;;;;;;;;;;5049064;28;20013;-78
2024/01/02 07:30:10;;;;;;;20.52;2.65;;;;;;;;;;5049182;28;20031;-78
2024/01/02 07:32:37;;;;;;;14.07;1.92;;;;;;;;;;5047923;28;20444;-79
2024/01/02 07:35:03;;;;;;;11.10;1.90;;;;;;;;;;5049402;28;20052;-78
2024/01/02 07:37:30;;;;;;;17.85;1.67;;;;;;;;;;5048086;28;20013;-78
2024/01/02 07:39:56;;;;;;;21.70;2.35;;;;;;;;;;5047752;28;20029;-78
2024/01/02 07:42:22;;;;;;;24.50;2.25;;;;;;;;;;5050173;28;20488;-77
2024/01/02 07:44:48;;;;;;;21.25;2.25;;;;;;;;;;5049470;28;20381;-78
2024/01/02 07:47:16;;;;;;;19.30;1.98;;;;;;;;;;5049412;28;20010;-78
2024/01/02 07:49:42;;;;;;;21.80;2.35;;;;;;;;;;5047566;28;20066;-78
2024/01/02 07:52:08;;;;;;;17.00;2.63;;;;;;;;;;5049838;28;20021;-78
2024/01/02 07:54:37;;;;;;;19.50;2.30;;;;;;;;;;5048584;28;20025;-80
2024/01/02 07:57:03;;;;;;;11.35;1.85;;;;;;;;;;5054320;28;20025;-79
2024/01/02 07:59:29;;;;;;;22.73;2.83;;;;;;;;;;5040423;28;20025;-78
2024/01/02 08:01:55;;;;;;;16.88;2.25;;;;;;;;;;5061571;28;20325;-78
2024/01/02 08:04:21;;;;;;;23.25;3.08;;;;;;;;;;5067365;28;20483;-78
2024/01/02 08:06:47;;;;;;;19.02;2.00;;;;;;;;;;5054680;28;20071;-79
2024/01/02 08:09:14;;;;;;;19.75;1.83;;;;;;;;;;5048284;28;20584;-76
2024/01/02 08:11:40;;;;;;;25.58;2.35;;;;;;;;;;5057867;28;20043;-78
2024/01/02 08:14:06;;;;;;;18.25;2.10;;;;;;;;;;5046907;28;20055;-77
2024/01/02 08:16:32;;;;;;;13.70;1.90;;;;;;;;;;5055212;28;20194;-78
2024/01/02 08:18:59;;;;;;;25.67;2.85;;;;;;;;;;5053265;28;20451;-77
2024/01/02 08:21:25;;;;;;;17.63;2.17;;;;;;;;;;5057297;28;20075;-77
2024/01/02 08:23:51;;;;;;;18.67;2.33;;;;;;;;;;5047708;28;20064;-78
2024/01/02 08:26:17;;;;;;;24.33;2.60;;;;;;;;;;5046948;28;20465;-77
2024/01/02 08:28:43;;;;;;;12.70;1.88;;;;;;;;;;5047245;28;20454;-78
2024/01/02 08:31:09;;;;;;;16.35;2.47;;;;;;;;;;5044558;28;20508;-77
2024/01/02 08:33:35;;;;;;;23.48;2.75;;;;;;;;;;5049255;28;20025;-77
2024/01/02 08:36:02;;;;;;;19.75;3.05;;;;;;;;;;5050133;28;20049;-77
2024/01/02 08:38:28;;;;;;;18.52;2.00;;;;;;;;;;5050410;28;20440;-77
2024/01/02 08:40:54;;;;;;;15.80;1.90;;;;;;;;;;5052475;28;20027;-78
2024/01/02 08:43:20;;;;;;;21.85;2.65;;;;;;;;;;5070268;28;20013;-77
2024/01/02 08:45:46;;;;;;;16.52;1.88;;;;;;;;;;5071344;28;20045;-77
2024/01/02 08:48:12;;;;;;;15.13;2.50;;;;;;;;;;5049832;28;20048;-78
2024/01/02 08:50:43;;;;;;;18.20;1.98;;;;;;;;;;5050065;28;20259;-78
2024/01/02 08:53:10;;;;;;;27.50;2.50;;;;;;;;;;5070912;28;20448;-78
2024/01/02 08:55:36;;;;;;;23.33;2.75;;;;;;;;;;5069367;28;20385;-78
2024/01/02 08:58:03;;;;;;;19.55;2.17;;;;;;;;;;5051549;28;20166;-77
2024/01/02 09:00:29;;;;;;;21.52;2.40;;;;;;;;;;5049673;28;20233;-78
2024/01/02 09:02:55;;;;;;;21.35;2.53;;;;;;;;;;5068023;28;20027;-78
2024/01/02 09:05:21;;;;;;;21.88;2.58;;;;;;;;;;5069967;28;20380;-77
2024/01/02 09:07:47;;;;;;;17.33;2.47;;;;;;;;;;5054027;28;20013;-77
2024/01/02 09:10:13;;;;;;;24.40;2.45;;;;;;;;;;5049765;28;20017;-77
2024/01/02 09:12:39;;;;;;;27.83;3.35;;;;;;;;;;5063500;28;20027;-77
2024/01/02 09:15:06;;;;;;;26.52;2.67;;;;;;;;;;5069480;28;20385;-77
2024/01/02 09:17:32;;;;;;;19.42;2.95;;;;;;;;;;5057880;28;20087;-78
2024/01/02 09:19:58;;;;;;;18.52;2.92;;;;;;;;;;5049394;28;20326;-77
2024/01/02 09:22:24;;;;;;;25.27;3.28;;;;;;;;;;5060465;28;20024;-77
2024/01/02 09:24:52;;;;;;;22.50;2.55;;;;;;;;;;5069110;28;20017;-77
2024/01/02 09:27:18;;;;;;;19.35;2.78;;;;;;;;;;5058370;28;20333;-77
2024/01/02 09:29:45;;;;;;;19.55;2.35;;;;;;;;;;5050909;28;20021;-77
2024/01/02 09:32:11;;;;;;;22.23;3.17;;;;;;;;;;5057252;28;20028;-78
2024/01/02 09:34:37;;;;;;;18.75;2.38;;;;;;;;;;5068892;28;20477;-77
2024/01/02 09:37:06;;;;;;;20.05;2.33;;;;;;;;;;5046149;28;20106;-77
2024/01/02 09:39:32;;;;;;;23.88;3.13;;;;;;;;;;5031031;28;20021;-77
2024/01/02 09:42:13;;;;;;;31.08;3.20;;;;;;;;;;5042470;28;20057;-77
2024/01/02 09:44:47;;;;;;;23.92;3.83;;;;;;;;;;5070628;28;20305;-78
2024/01/02 09:47:22;;;;;;;35.17;3.78;;;;;;;;;;5051816;28;20021;-78
2024/01/02 09:49:59;;;;;;;26.35;2.67;;;;;;;;;;5052700;28;20103;-78
2024/01/02 09:52:25;;;;;;;25.42;2.70;;;;;;;;;;5057885;28;20044;-78
2024/01/02 09:54:51;;;;;;;35.17;3.83;;;;;;;;;;5055255;28;20075;-77
2024/01/02 09:57:24;;;;;;;26.13;3.17;;;;;;;;;;5057121;28;20095;-78
2024/01/02 09:59:50;;;;;;;31.10;3.17;;;;;;;;;;5070524;28;20021;-77
2024/01/02 10:02:31;;;;;;;26.25;4.00;;;;;;;;;;5063077;28;20070;-77
2024/01/02 10:05:08;;;;;;;22.95;3.15;;;;;;;;;;5049155;28;20066;-78
2024/01/02 10:07:34;;;;;;;23.88;2.95;;;;;;;;;;5056967;28;20111;-78
2024/01/02 10:10:12;;;;;;;26.67;2.75;;;;;;;;;;5069088;28;20051;-78
2024/01/02 10:12:59;;;;;;;25.60;2.78;;;;;;;;;;5061433;28;20024;-77
2024/01/02 10:15:28;;;;;;;23.20;2.72;;;;;;;;;;5050284;28;20465;-78
2024/01/02 10:18:16;;;;;;;24.15;3.08;;;;;;;;;;5048723;28;20040;-79
2024/01/02 10:20:58;;;;;;;20.70;2.90;;;;;;;;;;5048776;28;20025;-78
2024/01/02 10:23:27;;;;;;;18.08;2.65;;;;;;;;;;5061581;28;20111;-79
2024/01/02 10:25:54;;;;;;;24.40;2.50;;;;;;;;;;5070767;28;20015;-79
2024/01/02 10:28:23;;;;;;;24.17;2.53;;;;;;;;;;5057067;28;20023;-79
2024/01/02 10:30:56;;;;;;;22.10;2.58;;;;;;;;;;5049164;28;20017;-79
2024/01/02 10:33:34;;;;;;;22.42;2.65;;;;;;;;;;5059674;28;20021;-79
2024/01/02 10:36:04;;;;;;;21.73;2.72;;;;;;;;;;5068294;28;20049;-79
2024/01/02 10:38:36;;;;;;;23.25;2.67;;;;;;;;;;5056393;28;20082;-79
2024/01/02 10:41:10;;;;;;;23.85;3.15;;;;;;;;;;5048999;28;20037;-79
2024/01/02 10:43:51;;;;;;;17.55;2.97;;;;;;;;;;5060410;28;20484;-79
2024/01/02 10:46:17;;;;;;;23.67;2.67;;;;;;;;;;5047828;28;20041;-79
2024/01/02 10:48:55;;;;;;;20.50;2.92;;;;;;;;;;5050437;28;20273;-79
2024/01/02 10:51:40;;;;;;;23.80;2.83;;;;;;;;;;5048752;28;20396;-79
2024/01/02 10:54:13;;;;;;;21.35;2.55;;;;;;;;;;5045543;28;20078;-79
2024/01/02 10:56:41;;;;;;;23.95;2.70;;;;;;;;;;5047654;28;20013;-79
2024/01/02 10:59:22;;;;;;;24.48;3.15;;;;;;;;;;5048049;28;20461;-79
2024/01/02 11:01:49;;;;;;;29.15;3.20;;;;;;;;;;5047020;28;20179;-79
2024/01/02 11:04:32;;;;;;;18.50;2.72;;;;;;;;;;5045686;28;20113;-79
2024/01/02 11:07:05;;;;;;;24.80;3.50;;;;;;;;;;5045774;28;20373;-79
2024/01/02 11:09:34;;;;;;;20.23;2.60;;;;;;;;;;5047932;28;20017;-78
2024/01/02 11:12:00;;;;;;;22.10;3.05;;;;;;;;;;5047929;28;20047;-79
2024/01/02 11:14:27;;;;;;;21.40;3.03;;;;;;;;;;5051742;28;20013;-79
2024/01/02 11:16:56;;;;;;;20.27;2.78;;;;;;;;;;5047992;28;20110;-79
2024/01/02 11:19:28;;;;;;;17.83;2.90;;;;;;;;;;5051226;28;20472;-79
2024/01/02 11:21:59;;;;;;;25.40;2.70;;;;;;;;;;5047841;28;20304;-79
2024/01/02 11:24:28;;;;;;;21.10;2.95;;;;;;;;;;5062207;28;20028;-79
2024/01/02 11:26:56;;;;;;;24.48;4.05;;;;;;;;;;5068485;28;20504;-79
2024/01/02 11:29:27;;;;;;;16.77;2.95;;;;;;;;;;5059198;28;20103;-79
2024/01/02 11:31:54;;;;;;;18.90;3.00;;;;;;;;;;5047075;28;20481;-79
2024/01/02 11:34:20;;;;;;;26.70;3.60;;;;;;;;;;5055016;28;20036;-79
2024/01/02 11:37:05;;;;;;;17.38;2.55;;;;;;;;;;5068442;28;20021;-80
2024/01/02 11:39:42;;;;;;;19.90;3.20;;;;;;;;;;5060511;28;20040;-78
2024/01/02 11:42:28;;;;;;;16.83;2.53;;;;;;;;;;5048545;28;20154;-79
2024/01/02 11:44:54;;;;;;;31.30;4.43;;;;;;;;;;5057137;28;20029;-79
2024/01/02 11:47:29;;;;;;;22.05;3.90;;;;;;;;;;5067727;28;20028;-78
2024/01/02 11:49:59;;;;;;;20.55;2.95;;;;;;;;;;5067843;28;20104;-79
2024/01/02 11:52:25;;;;;;;21.90;2.83;;;;;;;;;;5068001;28;20024;-78
2024/01/02 11:54:52;;;;;;;21.02;2.28;;;;;;;;;;5067880;28;20024;-78
2024/01/02 11:57:25;;;;;;;35.15;3.45;;;;;;;;;;5068187;28;20025;-78
2024/01/02 11:59:59;;;;;;;23.08;2.85;;;;;;;;;;5059555;28;20109;-78
2024/01/02 12:02:25;;;;;;;25.88;3.35;;;;;;;;;;5048226;28;20028;-79
2024/01/02 12:05:10;;;;;;;26.38;3.67;;;;;;;;;;5055191;28;20039;-79
2024/01/02 12:07:38;;;;;;;22.25;3.17;;;;;;;;;;5068108;28;20009;-79
2024/01/02 12:10:05;;;;;;;26.33;4.30;;;;;;;;;;5063439;28;20044;-78
2024/01/02 12:12:37;;;;;;;30.55;5.28;;;;;;;;;;5051374;28;20021;-78
2024/01/02 12:15:13;;;;;;;29.67;4.68;;;;;;;;;;5059601;28;20017;-79
2024/01/02 12:17:47;;;;;;;31.50;3.83;;;;;;;;;;5072051;28;20031;-78
2024/01/02 12:20:15;;;;;;;35.95;5.00;;;;;;;;;;5064092;28;20107;-79
2024/01/02 12:22:41;;;;;;;35.92;5.13;;;;;;;;;;5052979;28;20021;-79
2024/01/02 12:25:07;;;;;;;33.80;5.07;;;;;;;;;;5058849;28;20051;-79
2024/01/02 12:27:34;;;;;;;33.33;4.40;;;;;;;;;;5071778;28;20020;-79
2024/01/02 12:30:04;;;;;;;38.33;4.00;;;;;;;;;;5064864;28;20028;-79
2024/01/02 12:32:33;;;;;;;38.60;5.47;;;;;;;;;;5053992;28;20381;-79
2024/01/02 12:35:05;;;;;;;37.53;5.00;;;;;;;;;;5057610;28;20036;-78
2024/01/02 12:37:51;;;;;;;31.63;4.25;;;;;;;;;;5056385;28;20017;-77
2024/01/02 12:40:18;;;;;;;34.42;4.78;;;;;;;;;;5054412;28;20028;-78
2024/01/02 12:42:48;;;;;;;30.42;4.30;;;;;;;;;;5044574;28;20027;-78
2024/01/02 12:45:18;;;;;;;37.13;4.45;;;;;;;;;;5048100;28;20380;-78
2024/01/02 12:47:47;;;;;;;27.98;4.18;;;;;;;;;;5071587;28;20480;-78
2024/01/02 12:50:13;;;;;;;37.38;4.10;;;;;;;;;;5066787;28;20021;-78
2024/01/02 12:52:43;;;;;;;28.60;4.20;;;;;;;;;;5051147;28;20017;-78
2024/01/02 12:55:10;;;;;;;36.40;4.78;;;;;;;;;;5057322;28;20031;-78
2024/01/02 12:57:38;;;;;;;33.15;4.78;;;;;;;;;;5058244;28;20017;-78
2024/01/02 13:00:05;;;;;;;28.33;4.53;;;;;;;;;;5050748;28;20044;-79
2024/01/02 13:02:36;;;;;;;28.75;4.18;;;;;;;;;;5050687;28;20024;-78
2024/01/02 13:05:03;;;;;;;31.98;4.15;;;;;;;;;;5050823;28;20013;-78
2024/01/02 13:07:31;;;;;;;30.67;3.90;;;;;;;;;;5050149;28;20024;-78
2024/01/02 13:10:00;;;;;;;31.25;4.60;;;;;;;;;;5050469;28;20578;-78
2024/01/02 13:12:26;;;;;;;29.27;4.20;;;;;;;;;;5049965;28;20443;-78
2024/01/02 13:14:53;;;;;;;30.15;4.50;;;;;;;;;;5050507;28;20049;-78
2024/01/02 13:17:19;;;;;;;34.33;4.25;;;;;;;;;;5059844;28;20100;-78
2024/01/02 13:19:45;;;;;;;30.92;5.15;;;;;;;;;;5062073;28;20013;-78
2024/01/02 13:22:20;;;;;;;33.47;4.18;;;;;;;;;;5057369;28;20112;-78
2024/01/02 13:24:47;;;;;;;31.83;4.28;;;;;;;;;;5050112;28;20066;-78
2024/01/02 13:27:15;;;;;;;31.70;4.28;;;;;;;;;;5052130;28;20017;-78
2024/01/02 13:29:46;;;;;;;32.15;4.57;;;;;;;;;;5050623;28;20103;-80
2024/01/02 13:32:12;;;;;;;29.10;3.92;;;;;;;;;;5070006;28;20602;-79
2024/01/02 13:34:39;;;;;;;38.72;4.90;;;;;;;;;;5070543;28;20097;-78
2024/01/02 13:37:05;;;;;;;37.55;5.45;;;;;;;;;;5054715;28;20009;-78
2024/01/02 13:39:34;;;;;;;42.15;5.40;;;;;;;;;;5051538;28;20037;-77
2024/01/02 13:42:04;;;;;;;36.40;5.10;;;;;;;;;;5059934;28;20125;-77
2024/01/02 13:44:32;;;;;;;39.70;5.10;;;;;;;;;;5049638;28;20523;-78
2024/01/02 13:46:58;;;;;;;32.63;4.25;;;;;;;;;;5055454;28;20035;-78
2024/01/02 13:49:44;;;;;;;54.83;5.68;;;;;;;;;;5035239;28;20016;-77
2024/01/02 13:52:11;;;;;;;33.85;5.45;;;;;;;;;;5062938;28;20417;-77
2024/01/02 13:54:44;;;;;;;36.35;4.53;;;;;;;;;;5061081;28;20013;-77
2024/01/02 13:57:10;;;;;;;31.83;4.80;;;;;;;;;;5044253;28;20078;-77
2024/01/02 13:59:36;;;;;;;37.08;4.88;;;;;;;;;;5050661;28;20092;-77
2024/01/02 14:02:12;;;;;;;40.17;4.78;;;;;;;;;;5046816;28;20508;-77
2024/01/02 14:04:39;;;;;;;41.78;4.53;;;;;;;;;;5030461;28;20488;-77
2024/01/02 14:07:05;;;;;;;31.45;4.43;;;;;;;;;;5062454;28;20012;-77
2024/01/02 14:09:32;;;;;;;20.73;3.67;;;;;;;;;;5068362;28;20047;-77
2024/01/02 14:12:06;;;;;;;33.00;5.15;;;;;;;;;;5054658;28;20025;-77
2024/01/02 14:14:41;;;;;;;45.13;6.03;;;;;;;;;;5048851;28;20425;-77
2024/01/02 14:17:09;;;;;;;33.03;5.25;;;;;;;;;;5062881;28;20024;-77
2024/01/02 14:19:36;;;;;;;28.88;5.85;;;;;;;;;;5069310;28;20023;-77
2024/01/02 14:22:05;;;;;;;31.08;5.50;;;;;;;;;;5055976;28;20566;-77
2024/01/02 14:24:36;;;;;;;31.95;5.47;;;;;;;;;;5048369;28;20038;-77
2024/01/02 14:27:06;;;;;;;36.42;6.00;;;;;;;;;;5061913;28;20040;-77
2024/01/02 14:29:38;;;;;;;34.15;6.85;;;;;;;;;;5068781;28;20095;-77
2024/01/02 14:32:11;;;;;;;32.08;7.80;;;;;;;;;;5054095;28;20020;-77
2024/01/02 14:34:46;;;;;;;42.67;9.57;;;;;;;;;;5049112;28;20037;-77
2024/01/02 14:37:20;;;;;;;44.40;12.45;;;;;;;;;;5061448;28;20024;-77